< < Back
Terminal Aerodrome Forecast


Current Version              Previous Versions:   1  2  3  4  5  6  7  8  9  

Terminal Aerodrome Forecast

960
FTUS42 KFFC 272108 AAA
TAFPDK
TAF AMD
KPDK 272108Z 2721/2818 32010G22KT P6SM SCT060
     FM272200 32010G20KT P6SM BKN060
     FM280000 32010KT P6SM BKN045
     FM280500 32008KT P6SM BKN030
     FM281000 32007KT P6SM FEW050=



Latest METAR

868
SAUS70 KWBC 280500 RRM
MTRPDK
METAR KPDK 280453Z 31008KT 10SM FEW050 05/M02 A3001 RMK AO2 SLP169
T00501017 401440050


USA.gov is the U.S. government's official web portal to all federal, state and local government web resources and services.